Cawood, KY (40815)

2:01 PM EDT on August 31, 2015 (GMT -0400)
Rose Hill | | Change Station
CLOSE
Current Station
Personal Weather Station
Location: Rose Hill, VA
Elevation: 1860 ft
Nearby Weather Stations

Elev 1860 ft 36.67 °N, 83.29 °W | Updated 4 minutes ago

Partly Cloudy
Partly Cloudy
79.2 °F
Feels Like 81 °F
N
1.0
Wind Variable Wind from NNW
Gusts 4.0 mph

Today
High -- | Low -- °F
--% Chance of Precip.
Yesterday
High -- | Low -- °F
Precip. -- in
7:03 AM 8:03 PM
Waning Gibbous, 94% visible
Pressure 30.17 in
Visibility 10.0 miles
Clouds Scattered Clouds 5000 ft
Heat Index 81 °F
Dew Point 65 °F
Humidity 63%
Rainfall 0.00 in
Snow Depth Not available.
UV 8 out of 12
Pollen 8.30 out of 12
Air Quality Not available.
Flu Activity Not available.
METAR K0VG 311755Z AUTO 34004KT 10SM SCT050 28/18 A3017 RMK AO2
Pressure 30.17 in
Visibility 10.0 miles
Clouds Scattered Clouds 5000 ft
Heat Index 81 °F
Dew Point 65 °F
Humidity 63%
Rainfall 0.00 in
Snow Depth Not available.
UV 8 out of 12
Pollen 8.30 out of 12
Air Quality Not available.
Flu Activity Not available.
METAR K0VG 311755Z AUTO 34004KT 10SM SCT050 28/18 A3017 RMK AO2

10-Day Weather Forecast

×

Almanac

Astronomy

Aug. 31, 2015 Rise Set
Actual Time
Civil Twilight
Nautical Twilight
Astronomical Twilight
Moon
Length of Visible Light
Length of Day
Tomorrow will be .
, % of the Moon is Illuminated

Today's Extremes

State Highs State Lows

Community

WunderPhotos

Upload Photos

1,851,324 photos uploaded!

WunderBlogs® & News

Nearby

Air Quality

  Air Quality AQ Index Pollutant
Not available.

Snow Depth

Station Depth Elevation

Earthquake Activity

City Distance Mag. Time & Date
Minimum magnitude displayed is 2.5.

Coastal Water Temperatures

Place Temperature

Stations

Nearby Weather Stations

Station Location Temp. Windchill Dew Point Humidity Wind Precip. Elev Updated Type